createdAt,value
2018-08-09T00:00:12.389Z,20.76
2018-08-09T00:02:41.472Z,20.73
2018-08-09T00:05:10.660Z,20.76
2018-08-09T00:07:39.615Z,20.67
2018-08-09T00:10:08.609Z,20.65
2018-08-09T00:12:37.923Z,20.69
2018-08-09T00:15:07.070Z,20.72
2018-08-09T00:17:35.947Z,20.72
2018-08-09T00:20:05.240Z,20.66
2018-08-09T00:22:34.124Z,20.63
2018-08-09T00:25:03.024Z,20.60
2018-08-09T00:27:31.964Z,20.77
2018-08-09T00:30:01.277Z,20.78
2018-08-09T00:32:30.116Z,20.82
2018-08-09T00:34:59.268Z,20.76
2018-08-09T00:37:28.218Z,20.72
2018-08-09T00:39:57.898Z,20.99
2018-08-09T00:42:26.832Z,20.79
2018-08-09T00:44:55.951Z,20.71
2018-08-09T00:47:24.837Z,20.64
2018-08-09T00:49:54.088Z,20.64
2018-08-09T00:52:23.028Z,20.63
2018-08-09T00:54:52.061Z,20.59
2018-08-09T00:57:21.431Z,20.56
2018-08-09T00:59:50.295Z,20.54
2018-08-09T01:02:19.240Z,20.48
2018-08-09T01:04:48.380Z,20.48
2018-08-09T01:07:17.711Z,20.53
2018-08-09T01:09:46.602Z,20.58
2018-08-09T01:12:15.552Z,20.59
2018-08-09T01:14:44.423Z,20.61
2018-08-09T01:17:13.851Z,20.53
2018-08-09T01:19:42.976Z,20.51
2018-08-09T01:22:12.040Z,20.43
2018-08-09T01:24:40.953Z,20.50
2018-08-09T01:27:10.474Z,20.45
2018-08-09T01:29:40.763Z,20.41
2018-08-09T01:32:10.341Z,20.41
2018-08-09T01:34:39.222Z,20.47
2018-08-09T01:37:08.103Z,20.40
2018-08-09T01:39:37.329Z,20.39
2018-08-09T01:42:17.010Z,20.27
2018-08-09T01:44:45.977Z,20.21
2018-08-09T01:47:14.868Z,20.33
2018-08-09T01:49:44.012Z,20.44
2018-08-09T01:52:12.976Z,20.28
2018-08-09T01:54:42.183Z,20.17
2018-08-09T01:57:11.108Z,20.24
2018-08-09T01:59:39.978Z,20.30
2018-08-09T02:02:08.988Z,20.31
2018-08-09T02:04:37.885Z,20.33
2018-08-09T02:07:06.683Z,20.23
2018-08-09T02:09:35.615Z,20.35
2018-08-09T02:12:05.626Z,20.28
2018-08-09T02:14:34.992Z,20.25
2018-08-09T02:17:04.008Z,20.29
2018-08-09T02:19:33.213Z,20.27
2018-08-09T02:22:02.351Z,20.30
2018-08-09T02:24:31.190Z,20.23
2018-08-09T02:27:00.292Z,20.18
2018-08-09T02:29:29.626Z,20.18
2018-08-09T02:31:58.815Z,20.11
2018-08-09T02:34:27.697Z,20.13
2018-08-09T02:36:57.207Z,20.21
2018-08-09T02:39:26.093Z,20.14
2018-08-09T02:41:55.246Z,20.41
2018-08-09T02:44:24.172Z,20.32
2018-08-09T02:46:53.158Z,20.35
2018-08-09T02:49:22.228Z,20.50
2018-08-09T02:51:51.959Z,20.43
2018-08-09T02:54:21.130Z,20.41
2018-08-09T02:56:50.074Z,20.40
2018-08-09T02:59:19.651Z,20.36
2018-08-09T03:01:48.648Z,20.43
2018-08-09T03:04:17.925Z,20.58
2018-08-09T03:06:46.905Z,20.59
2018-08-09T03:09:16.055Z,20.52
2018-08-09T03:11:45.000Z,20.88
2018-08-09T03:14:13.992Z,20.87
2018-08-09T03:16:42.876Z,20.85
2018-08-09T03:19:12.004Z,21.00
2018-08-09T03:21:41.060Z,20.91
2018-08-09T03:24:10.144Z,20.87
2018-08-09T03:26:39.020Z,21.08
2018-08-09T03:29:08.321Z,21.02
2018-08-09T03:31:37.508Z,21.14
2018-08-09T03:34:06.636Z,21.24
2018-08-09T03:36:35.499Z,21.34
2018-08-09T03:39:06.632Z,21.57
2018-08-09T03:41:35.877Z,21.64
2018-08-09T03:44:04.997Z,21.77
2018-08-09T03:46:33.952Z,22.00
2018-08-09T03:49:02.924Z,22.05
2018-08-09T03:51:32.018Z,22.10
2018-08-09T03:54:00.903Z,22.12
2018-08-09T03:56:30.019Z,22.23
2018-08-09T03:58:59.440Z,22.28
2018-08-09T04:01:28.440Z,22.66
2018-08-09T04:03:57.853Z,22.76
2018-08-09T04:06:26.825Z,23.05
2018-08-09T04:08:56.092Z,23.05
2018-08-09T04:11:25.277Z,22.61
2018-08-09T04:13:54.591Z,22.96
2018-08-09T04:16:23.517Z,23.14
2018-08-09T04:18:52.519Z,22.79
2018-08-09T04:21:21.420Z,22.97
2018-08-09T04:23:50.532Z,23.18
2018-08-09T04:26:19.763Z,23.24
2018-08-09T04:28:48.949Z,23.11
2018-08-09T04:31:17.843Z,23.12
2018-08-09T04:33:46.719Z,23.06
2018-08-09T04:36:15.555Z,23.17
2018-08-09T04:38:44.755Z,23.14
